Delaware — WYU8553 — position and weather

sailwx.info

Track history (hours):
 
Tides and Currents Weather Stations Pressure Air Temp Water Temp Dewpoint Dewpoint Depression Visibility Wind Speed Wind Dir Waves Ship Positions

Delaware

Owner: DELAWARE RIVER & BAY AUTHORITY, NORTH CAPE MAY, NJ. More information available from US FCC via Universal Licensing System and Coast Guard Vessel Documentation Center.

Last reported at 2017-Oct-22 22:30 UTC. Time now 2017-Oct-22 22:57 UTC.
Position N 38°57' W 075°00'.

; draft 2.2 m.

Type: Ship. MMSI: 366914210.

Date/timePositionNaut miles runAvg speedWind from/ knotsBaromVisibWave heightAir tempDewpointWater temp
2017-Oct-22 22:30N 38°57' W 075°00'2 4.9
2017-Oct-22 22:01N 38°58' W 074°58'3 6.4
2017-Oct-22 21:31N 38°56' W 075°01'510.7
2017-Oct-22 21:00N 38°51' W 075°04'5 9.6
2017-Oct-22 20:30N 38°47' W 075°07'0 0.3
2017-Oct-22 20:00N 38°47' W 075°07'4 7.8
2017-Oct-22 19:31N 38°51' W 075°06'612.4
2017-Oct-22 19:01N 38°56' W 075°01'4 7.4
2017-Oct-22 18:31N 38°58' W 074°58'0 0.0
2017-Oct-22 18:01N 38°58' W 074°58'3 5.8
2017-Oct-22 17:31N 38°56' W 075°00'611.1
2017-Oct-22 17:01N 38°52' W 075°05'510.3
2017-Oct-22 16:30N 38°47' W 075°07'0 0.0
2017-Oct-22 16:00N 38°47' W 075°07'4 7.3
2017-Oct-22 15:30N 38°50' W 075°05'611.8
2017-Oct-22 15:00N 38°55' W 075°01'4 8.0
2017-Oct-22 14:30N 38°58' W 074°58'1 1.7
2017-Oct-22 14:00N 38°58' W 074°59'612.3
2017-Oct-22 13:30N 38°53' W 075°03'611.5
2017-Oct-22 13:00N 38°48' W 075°07'1 1.8
2017-Oct-22 12:30N 38°47' W 075°07'4 9.0
2017-Oct-22 12:00N 38°51' W 075°06'611.5
2017-Oct-22 11:31N 38°56' W 075°01'4 7.1
2017-Oct-22 11:00N 38°58' W 074°58'0 0.0
2017-Oct-22 10:30N 38°58' W 074°58'0 0.0
2017-Oct-22 09:58N 38°58' W 074°58'0 0.0
2017-Oct-22 09:28N 38°58' W 074°58'0 0.0
2017-Oct-22 08:58N 38°58' W 074°58'0 0.0
2017-Oct-22 08:28N 38°58' W 074°58'0 0.0
2017-Oct-22 07:58N 38°58' W 074°58'0 0.0
2017-Oct-22 07:28N 38°58' W 074°58'0 0.0
2017-Oct-22 06:58N 38°58' W 074°58'0 0.0
2017-Oct-22 06:25N 38°58' W 074°58'0 0.0
2017-Oct-22 05:58N 38°58' W 074°58'0 0.0
2017-Oct-22 05:28N 38°58' W 074°58'0 0.0
2017-Oct-22 04:58N 38°58' W 074°58'0 0.0
2017-Oct-22 04:25N 38°58' W 074°58'0 0.0
2017-Oct-22 03:58N 38°58' W 074°58'0 0.0
2017-Oct-22 03:28N 38°58' W 074°58'0 0.0
2017-Oct-22 02:58N 38°58' W 074°58'0 0.0
2017-Oct-22 02:28N 38°58' W 074°58'0 0.0
2017-Oct-22 01:58N 38°58' W 074°58'0 0.0
2017-Oct-22 01:28N 38°58' W 074°58'0 0.7
2017-Oct-22 01:01N 38°58' W 074°58'612.4
2017-Oct-22 00:30N 38°53' W 075°04'612.4
2017-Oct-22 00:00N 38°48' W 075°07'1 1.9
2017-Oct-21 23:31N 38°47' W 075°07'5 9.9
2017-Oct-21 23:00N 38°52' W 075°06'611.4
2017-Oct-21 22:30N 38°56' W 075°01'3 6.2
2017-Oct-21 21:59N 38°58' W 074°58'1 2.0
2017-Oct-21 21:31N 38°58' W 074°59'611.3
2017-Oct-21 21:00N 38°53' W 075°03'611.0
2017-Oct-21 20:30N 38°48' W 075°07'1 2.9
2017-Oct-21 20:01N 38°47' W 075°07'3 6.2
2017-Oct-21 19:31N 38°50' W 075°07'612.5
2017-Oct-21 19:01N 38°55' W 075°02'4 9.0
2017-Oct-21 18:30N 38°58' W 074°58'0 0.0
2017-Oct-21 18:01N 38°58' W 074°58'2 3.2
2017-Oct-21 17:30N 38°57' W 074°59'611.3
2017-Oct-21 17:00N 38°53' W 075°04'611.6
2017-Oct-21 16:31N 38°48' W 075°07'1 1.3
2017-Oct-21 16:01N 38°47' W 075°07'4 7.3
2017-Oct-21 15:30N 38°51' W 075°06'611.9
2017-Oct-21 15:00N 38°55' W 075°02'4 3.6
2017-Oct-21 14:01N 38°58' W 074°58'611.9
2017-Oct-21 13:30N 38°53' W 075°03'611.6
2017-Oct-21 13:00N 38°48' W 075°07'1 2.5
2017-Oct-21 12:30N 38°47' W 075°07'4 8.5
2017-Oct-21 12:00N 38°51' W 075°06'611.3
2017-Oct-21 11:30N 38°56' W 075°02'4 8.0
2017-Oct-21 11:00N 38°58' W 074°58'0 0.0
2017-Oct-21 10:30N 38°58' W 074°58'0 0.0
2017-Oct-21 09:59N 38°58' W 074°58'0 0.0
2017-Oct-21 09:26N 38°58' W 074°58'0 0.0
2017-Oct-21 08:59N 38°58' W 074°58'0 0.0
2017-Oct-21 08:26N 38°58' W 074°58'0 0.0
2017-Oct-21 07:59N 38°58' W 074°58'0 0.0
2017-Oct-21 07:29N 38°58' W 074°58'0 0.0
2017-Oct-21 06:59N 38°58' W 074°58'0 0.0
2017-Oct-21 06:29N 38°58' W 074°58'0 0.0
2017-Oct-21 05:59N 38°58' W 074°58'0 0.0
2017-Oct-21 05:29N 38°58' W 074°58'0 0.0
2017-Oct-21 04:59N 38°58' W 074°58'0 0.0
2017-Oct-21 04:29N 38°58' W 074°58'0 0.0
2017-Oct-21 03:59N 38°58' W 074°58'0 0.0
2017-Oct-21 03:29N 38°58' W 074°58'0 0.0
2017-Oct-21 02:59N 38°58' W 074°58'0 0.0
2017-Oct-21 02:26N 38°58' W 074°58'0 0.0
2017-Oct-21 01:59N 38°58' W 074°58'0 0.0
2017-Oct-21 01:29N 38°58' W 074°58'0 0.4
2017-Oct-21 01:00N 38°58' W 074°58'612.2
2017-Oct-21 00:30N 38°54' W 075°04'612.6
2017-Oct-21 00:00N 38°48' W 075°07'1 2.3
2017-Oct-20 23:29N 38°47' W 075°07'6 9.3
2017-Oct-20 22:49N 38°53' W 075°04'511.5
2017-Oct-20 22:23N 38°57' W 075°00'2 6.2
2017-Oct-20 21:59N 38°58' W 074°58'2 4.1
2017-Oct-20 21:27N 38°57' W 074°60'511.4
2017-Oct-20 21:00N 38°52' W 075°03'7 3.0
2017-Oct-20 18:39N 38°58' W 074°58'0 0.1
2017-Oct-20 17:47N 38°58' W 074°58'0 0.1
2017-Oct-20 17:12N 38°58' W 074°58'0 0.0
2017-Oct-20 16:54N 38°58' W 074°58'0 0.0
2017-Oct-20 15:36N 38°58' W 074°58'0 0.0
2017-Oct-20 15:06N 38°58' W 074°58'0 0.0
2017-Oct-20 14:57N 38°58' W 074°58'0 0.0
2017-Oct-20 13:57N 38°58' W 074°58'0 0.0
2017-Oct-20 13:30N 38°58' W 074°58'0 0.0
2017-Oct-20 13:00N 38°58' W 074°58'0 0.0
2017-Oct-20 12:30N 38°58' W 074°58'0 0.0
2017-Oct-20 12:00N 38°58' W 074°58'0 0.0
2017-Oct-20 11:30N 38°58' W 074°58'0 0.0
2017-Oct-20 11:00N 38°58' W 074°58'0 0.0
2017-Oct-20 10:30N 38°58' W 074°58'0 0.0
2017-Oct-20 10:00N 38°58' W 074°58'0 0.0
2017-Oct-20 09:30N 38°58' W 074°58'0 0.0
2017-Oct-20 09:00N 38°58' W 074°58'0 0.0
2017-Oct-20 08:29N 38°58' W 074°58'0 0.0
2017-Oct-20 07:59N 38°58' W 074°58'0 0.0
2017-Oct-20 07:30N 38°58' W 074°58'0 0.0
2017-Oct-20 07:00N 38°58' W 074°58'0 0.0
2017-Oct-20 06:30N 38°58' W 074°58'0 0.0
2017-Oct-20 05:57N 38°58' W 074°58'0 0.0
2017-Oct-20 05:27N 38°58' W 074°58'0 0.0
2017-Oct-20 04:59N 38°58' W 074°58'0 0.0
2017-Oct-20 04:30N 38°58' W 074°58'0 0.0
2017-Oct-20 03:59N 38°58' W 074°58'0 0.0
2017-Oct-20 03:30N 38°58' W 074°58'0 0.0
2017-Oct-20 03:00N 38°58' W 074°58'0 0.0
2017-Oct-20 02:30N 38°58' W 074°58'0 0.0
2017-Oct-20 02:00N 38°58' W 074°58'0 0.0
2017-Oct-20 01:27N 38°58' W 074°58'0 0.0
2017-Oct-20 01:00N 38°58' W 074°58'0 0.0
2017-Oct-20 00:21N 38°58' W 074°58'0 0.0
2017-Oct-20 00:00N 38°58' W 074°58'0 0.0
2017-Oct-19 23:27N 38°58' W 074°58'0 0.0
2017-Oct-19 22:54N 38°58' W 074°58'0 0.0
2017-Oct-19 22:30N 38°58' W 074°58'0 0.0
2017-Oct-19 22:00N 38°58' W 074°58'0 0.0
2017-Oct-19 21:30N 38°58' W 074°58'0 0.0
2017-Oct-19 20:57N 38°58' W 074°58'0 0.0
2017-Oct-19 20:30N 38°58' W 074°58'0 0.0
2017-Oct-19 20:00N 38°58' W 074°58'0 0.0
2017-Oct-19 19:27N 38°58' W 074°58'0 0.0
2017-Oct-19 19:00N 38°58' W 074°58'0 0.0
2017-Oct-19 16:51N 38°58' W 074°58'0 0.0
2017-Oct-19 16:27N 38°58' W 074°58'0 0.0
2017-Oct-19 15:33N 38°58' W 074°58'0 0.2
2017-Oct-19 15:30N 38°58' W 074°58'0 0.0
2017-Oct-19 15:00N 38°58' W 074°58'0 0.0
2017-Oct-19 14:30N 38°58' W 074°58'0 0.0
2017-Oct-19 13:54N 38°58' W 074°58'0 0.0
2017-Oct-19 13:26N 38°58' W 074°58'0 0.0
2017-Oct-19 13:00N 38°58' W 074°58'0 0.0
2017-Oct-19 12:21N 38°58' W 074°58'0 0.0
2017-Oct-19 11:57N 38°58' W 074°58'0 0.1
2017-Oct-19 11:27N 38°58' W 074°58'0 0.0
2017-Oct-19 11:00N 38°58' W 074°58'0 0.0
2017-Oct-19 10:30N 38°58' W 074°58'0 0.0
2017-Oct-19 09:59N 38°58' W 074°58'0 0.0
2017-Oct-19 09:30N 38°58' W 074°58'0 0.0
2017-Oct-19 08:57N 38°58' W 074°58'0 0.0
2017-Oct-19 08:30N 38°58' W 074°58'0 0.0
2017-Oct-19 08:00N 38°58' W 074°58'0 0.0
2017-Oct-19 07:30N 38°58' W 074°58'0 0.0
2017-Oct-19 07:00N 38°58' W 074°58'0 0.0
2017-Oct-19 06:30N 38°58' W 074°58'0 0.0
2017-Oct-19 06:00N 38°58' W 074°58'0 0.0
2017-Oct-19 05:24N 38°58' W 074°58'0 0.0
2017-Oct-19 05:00N 38°58' W 074°58'0 0.0
2017-Oct-19 04:24N 38°58' W 074°58'0 0.0
2017-Oct-19 04:00N 38°58' W 074°58'0 0.0
2017-Oct-19 03:30N 38°58' W 074°58'0 0.0
2017-Oct-19 02:57N 38°58' W 074°58'0 0.0
2017-Oct-19 02:30N 38°58' W 074°58'0 0.0
2017-Oct-19 01:54N 38°58' W 074°58'0 0.0
2017-Oct-19 01:27N 38°58' W 074°58'0 0.2
2017-Oct-19 01:00N 38°58' W 074°58'611.6
2017-Oct-19 00:30N 38°54' W 075°03'712.5
2017-Oct-18 23:58N 38°48' W 075°07'1 2.1
2017-Oct-18 23:29N 38°47' W 075°07'4 8.9
2017-Oct-18 23:00N 38°51' W 075°06'511.0
2017-Oct-18 22:30N 38°56' W 075°02'4 8.2
2017-Oct-18 22:01N 38°58' W 074°58'0 0.4
2017-Oct-18 21:31N 38°58' W 074°58'612.1
2017-Oct-18 21:00N 38°54' W 075°03'612.0
2017-Oct-18 20:31N 38°48' W 075°07'1 2.6
2017-Oct-18 19:57N 38°47' W 075°07'4 8.8
2017-Oct-18 19:30N 38°51' W 075°06'712.5
2017-Oct-18 18:55N 38°57' W 075°00'2 2.0
2017-Oct-18 17:38N 38°58' W 074°58'1 7.6
2017-Oct-18 17:28N 38°57' W 074°59'9 4.3
2017-Oct-18 15:28N 38°51' W 075°06'612.2
2017-Oct-18 15:00N 38°55' W 075°02'4 3.7
2017-Oct-18 14:00N 38°58' W 074°59'510.9
2017-Oct-18 13:30N 38°54' W 075°03'611.9
2017-Oct-18 13:00N 38°49' W 075°07'2 3.3
2017-Oct-18 12:30N 38°47' W 075°07'4 8.2
2017-Oct-18 12:00N 38°51' W 075°06'510.9
2017-Oct-18 11:30N 38°55' W 075°02'4 8.5
2017-Oct-18 11:00N 38°58' W 074°58'0 0.0
2017-Oct-18 10:30N 38°58' W 074°58'0 0.0
2017-Oct-18 09:58N 38°58' W 074°58'0 0.0
2017-Oct-18 09:22N 38°58' W 074°58'0 0.0
2017-Oct-18 08:58N 38°58' W 074°58'0 0.0
2017-Oct-18 08:25N 38°58' W 074°58'0 0.0
2017-Oct-18 07:58N 38°58' W 074°58'0 0.0
2017-Oct-18 07:22N 38°58' W 074°58'0 0.0
2017-Oct-18 06:58N 38°58' W 074°58'0 0.0
2017-Oct-18 06:16N 38°58' W 074°58'0 0.0
2017-Oct-18 05:55N 38°58' W 074°58'0 0.0
2017-Oct-18 05:25N 38°58' W 074°58'0 0.0
2017-Oct-18 04:58N 38°58' W 074°58'0 0.0
2017-Oct-18 04:28N 38°58' W 074°58'0 0.0
2017-Oct-18 03:49N 38°58' W 074°58'0 0.0
2017-Oct-18 03:19N 38°58' W 074°58'0 0.0
2017-Oct-18 02:58N 38°58' W 074°58'0 0.0
2017-Oct-18 02:25N 38°58' W 074°58'0 0.0
2017-Oct-18 01:03N 38°58' W 074°58'2 9.5
2017-Oct-18 00:50N 38°57' W 074°60'512.0
2017-Oct-18 00:25N 38°53' W 075°04'512.4
2017-Oct-18 00:00N 38°48' W 075°07'12 1.9
2017-Oct-17 17:39N 38°58' W 074°58'510.0
2017-Oct-17 17:12N 38°55' W 075°02'210.9
2017-Oct-17 16:59N 38°53' W 075°04'610.7
2017-Oct-17 16:25N 38°47' W 075°07'0 0.8
2017-Oct-17 15:55N 38°47' W 075°07'4 8.7
2017-Oct-17 15:30N 38°51' W 075°06'1011.5
2017-Oct-17 14:37N 38°58' W 074°58'0 0.2
2017-Oct-17 14:11N 38°58' W 074°58'2 9.2
2017-Oct-17 13:56N 38°57' W 074°60'610.8
2017-Oct-17 13:25N 38°52' W 075°05'511.0
2017-Oct-17 12:57N 38°48' W 075°07'1 1.2
2017-Oct-17 12:24N 38°47' W 075°07'4 8.8
2017-Oct-17 12:00N 38°50' W 075°06'811.8
2017-Oct-17 11:20N 38°57' W 075°00'2 7.1
2017-Oct-17 11:00N 38°58' W 074°58'0 0.0
2017-Oct-17 10:29N 38°58' W 074°58'0 0.0
2017-Oct-17 09:58N 38°58' W 074°58'0 0.0
2017-Oct-17 09:10N 38°58' W 074°58'0 0.0
2017-Oct-17 08:52N 38°58' W 074°58'0 0.0
2017-Oct-17 07:43N 38°58' W 074°58'0 0.0
2017-Oct-17 06:28N 38°58' W 074°58'0 0.0
2017-Oct-17 05:49N 38°58' W 074°58'0 0.0
2017-Oct-17 05:25N 38°58' W 074°58'0 0.0
2017-Oct-17 04:49N 38°58' W 074°58'0 0.0
2017-Oct-17 04:28N 38°58' W 074°58'0 0.0
2017-Oct-17 03:58N 38°58' W 074°58'0 0.0
2017-Oct-17 03:16N 38°58' W 074°58'0 0.0
2017-Oct-17 02:58N 38°58' W 074°58'0 0.0
2017-Oct-17 02:25N 38°58' W 074°58'0 0.0
2017-Oct-17 01:58N 38°58' W 074°58'0 0.0
2017-Oct-17 01:25N 38°58' W 074°58'0 0.0
2017-Oct-17 00:13N 38°58' W 074°58'0 0.0
2017-Oct-16 23:58N 38°58' W 074°58'0 0.0
2017-Oct-16 23:13N 38°58' W 074°58'0 0.0
2017-Oct-16 14:31N 38°58' W 074°58'0 0.0
2017-Oct-16 13:58N 38°58' W 074°58'0 0.0
2017-Oct-16 13:22N 38°58' W 074°58'0 0.0
2017-Oct-16 12:58N 38°58' W 074°58'0 0.0
2017-Oct-16 12:25N 38°58' W 074°58'0 0.0
2017-Oct-16 11:34N 38°58' W 074°58'0 0.0
2017-Oct-16 11:22N 38°58' W 074°58'0 0.0
2017-Oct-16 10:58N 38°58' W 074°58'0 0.0
2017-Oct-16 10:28N 38°58' W 074°58'0 0.0
2017-Oct-16 09:58N 38°58' W 074°58'0 0.0
2017-Oct-16 09:28N 38°58' W 074°58'0 0.0
2017-Oct-16 08:58N 38°58' W 074°58'0 0.0
2017-Oct-16 08:25N 38°58' W 074°58'0 0.0
2017-Oct-16 07:58N 38°58' W 074°58'0 0.0
2017-Oct-16 07:13N 38°58' W 074°58'0 0.0
2017-Oct-16 06:58N 38°58' W 074°58'0 0.0
2017-Oct-16 06:28N 38°58' W 074°58'0 0.0
2017-Oct-16 05:58N 38°58' W 074°58'0 0.0
2017-Oct-16 04:43N 38°58' W 074°58'0 0.0
2017-Oct-16 04:28N 38°58' W 074°58'0 0.0
2017-Oct-16 03:55N 38°58' W 074°58'0 0.0
2017-Oct-16 03:16N 38°58' W 074°58'0 0.0
2017-Oct-16 02:31N 38°58' W 074°58'0 0.0
2017-Oct-16 02:13N 38°58' W 074°58'0 0.0
2017-Oct-16 01:58N 38°58' W 074°58'0 0.0
2017-Oct-16 01:19N 38°58' W 074°58'0 0.0
2017-Oct-16 00:58N 38°58' W 074°58'0 0.0
2017-Oct-15 23:55N 38°58' W 074°58'0 0.0
2017-Oct-15 23:13N 38°58' W 074°58'0 0.0
2017-Oct-15 22:52N 38°58' W 074°58'0 0.0
2017-Oct-15 21:19N 38°58' W 074°58'0 0.0
2017-Oct-15 20:31N 38°58' W 074°58'0 0.0
2017-Oct-15 19:41N 38°58' W 074°58'0 0.5
2017-Oct-15 19:30N 38°58' W 074°58'3 6.4
2017-Oct-15 18:58N 38°56' W 075°01'612.7
2017-Oct-15 18:30N 38°51' W 075°06'4 7.4
2017-Oct-15 17:55N 38°47' W 075°07'0 0.1
2017-Oct-15 17:31N 38°47' W 075°07'510.0
2017-Oct-15 17:00N 38°52' W 075°06'711.6
2017-Oct-15 16:25N 38°57' W 075°00'2 5.2
2017-Oct-15 15:59N 38°58' W 074°58'2 4.0
2017-Oct-15 15:30N 38°57' W 074°60'611.2
2017-Oct-15 15:00N 38°52' W 075°04'6 6.1
2017-Oct-15 14:00N 38°47' W 075°07'5 8.7
2017-Oct-15 13:29N 38°51' W 075°06'611.8
2017-Oct-15 13:01N 38°56' W 075°01'4 7.4
2017-Oct-15 12:30N 38°58' W 074°58'0 0.0
2017-Oct-15 12:00N 38°58' W 074°58'0 0.0
2017-Oct-15 11:07N 38°58' W 074°58'0 0.0
2017-Oct-15 10:58N 38°58' W 074°58'0 0.0
2017-Oct-15 10:28N 38°58' W 074°58'0 0.0
2017-Oct-15 09:55N 38°58' W 074°58'0 0.0
2017-Oct-15 08:43N 38°58' W 074°58'0 0.0
2017-Oct-15 08:22N 38°58' W 074°58'0 0.0
2017-Oct-15 07:37N 38°58' W 074°58'0 0.0
2017-Oct-15 07:19N 38°58' W 074°58'0 0.0
2017-Oct-15 06:58N 38°58' W 074°58'0 0.0
2017-Oct-15 06:22N 38°58' W 074°58'0 0.0
2017-Oct-15 05:55N 38°58' W 074°58'0 0.0
2017-Oct-15 04:01N 38°58' W 074°58'0 0.0
2017-Oct-15 03:55N 38°58' W 074°58'0 0.0
2017-Oct-15 03:22N 38°58' W 074°58'0 0.0
2017-Oct-15 02:58N 38°58' W 074°58'0 0.0
2017-Oct-15 02:28N 38°58' W 074°58'0 0.0
2017-Oct-15 01:58N 38°58' W 074°58'0 0.0
2017-Oct-15 01:25N 38°58' W 074°58'1 2.7
2017-Oct-15 01:00N 38°57' W 074°59'611.2
2017-Oct-15 00:30N 38°53' W 075°04'611.4
2017-Oct-15 00:00N 38°48' W 075°07'1 2.6
2017-Oct-14 23:30N 38°47' W 075°07'4 7.2
2017-Oct-14 22:58N 38°51' W 075°06'612.3
2017-Oct-14 22:30N 38°55' W 075°02'4 8.9
2017-Oct-14 22:00N 38°58' W 074°58'1 1.3
2017-Oct-14 21:30N 38°58' W 074°58'612.0
2017-Oct-14 21:00N 38°53' W 075°03'611.9
2017-Oct-14 20:30N 38°48' W 075°07'1 2.0
2017-Oct-14 20:00N 38°47' W 075°07'610.6
2017-Oct-14 19:27N 38°53' W 075°05'611.6
2017-Oct-14 18:58N 38°57' W 075°00'3 5.2
2017-Oct-14 18:29N 38°58' W 074°58'0 0.0
2017-Oct-14 18:00N 38°58' W 074°58'0 0.7
2017-Oct-14 17:30N 38°58' W 074°58'711.9
2017-Oct-14 16:56N 38°53' W 075°03'511.2
2017-Oct-14 16:29N 38°49' W 075°07'2 3.4
2017-Oct-14 16:00N 38°47' W 075°07'4 7.2
2017-Oct-14 15:27N 38°51' W 075°06'712.5
2017-Oct-14 14:52N 38°57' W 075°00'3 6.7
2017-Oct-14 14:29N 38°58' W 074°58'1 2.1
2017-Oct-14 14:00N 38°58' W 074°59'510.8
2017-Oct-14 13:30N 38°53' W 075°03'611.2
2017-Oct-14 13:00N 38°49' W 075°07'2 3.4
2017-Oct-14 12:30N 38°47' W 075°07'4 7.1
2017-Oct-14 11:54N 38°51' W 075°06'512.4
2017-Oct-14 11:30N 38°55' W 075°02'5 8.5
2017-Oct-14 10:57N 38°58' W 074°58'0 0.0
2017-Oct-14 10:30N 38°58' W 074°58'0 0.0
2017-Oct-14 09:08N 38°58' W 074°58'0 0.0
2017-Oct-14 08:53N 38°58' W 074°58'0 0.0
2017-Oct-14 08:29N 38°58' W 074°58'0 0.0
2017-Oct-14 07:47N 38°58' W 074°58'0 0.0
2017-Oct-14 07:26N 38°58' W 074°58'0 0.0
2017-Oct-14 06:56N 38°58' W 074°58'0 0.0
2017-Oct-14 06:20N 38°58' W 074°58'0 0.0
2017-Oct-14 05:56N 38°58' W 074°58'0 0.0
2017-Oct-14 05:17N 38°58' W 074°58'0 0.0
2017-Oct-14 04:53N 38°58' W 074°58'0 0.0
2017-Oct-14 01:09N 38°58' W 074°58'2 9.3
2017-Oct-14 00:59N 38°57' W 074°59'510.9
2017-Oct-14 00:30N 38°53' W 075°04'2 1.4
2017-Oct-13 22:54N 38°52' W 075°06'612.4
2017-Oct-13 22:24N 38°56' W 075°01'3 4.1
2017-Oct-13 21:41N 38°58' W 074°58'2 9.7
2017-Oct-13 21:28N 38°57' W 074°60'2 0.6
2017-Oct-13 18:05N 38°58' W 074°58'0 0.2
2017-Oct-13 17:43N 38°58' W 074°58'0 0.0
2017-Oct-13 14:10N 38°58' W 074°58'3 9.4
2017-Oct-13 13:52N 38°56' W 075°00'2 0.9
2017-Oct-13 11:10N 38°58' W 074°58'1 2.8
2017-Oct-13 10:57N 38°58' W 074°58'0 0.0
2017-Oct-13 10:29N 38°58' W 074°58'0 0.0
2017-Oct-13 08:06N 38°58' W 074°58'0 0.0
2017-Oct-13 07:51N 38°58' W 074°58'0 0.0
2017-Oct-13 07:30N 38°58' W 074°58'0 0.0
2017-Oct-13 06:54N 38°58' W 074°58'0 0.0
2017-Oct-13 06:09N 38°58' W 074°58'0 0.0
2017-Oct-13 05:51N 38°58' W 074°58'0 0.0
2017-Oct-13 05:24N 38°58' W 074°58'0 0.0
2017-Oct-13 04:57N 38°58' W 074°58'0 0.0
2017-Oct-13 03:57N 38°58' W 074°58'0 0.0
2017-Oct-13 02:33N 38°58' W 074°58'0 0.0
2017-Oct-13 01:09N 38°58' W 074°58'0 0.0
2017-Oct-13 01:00N 38°58' W 074°58'  
Track history (hours):
 
Tides and Currents Weather Stations Pressure Air Temp Water Temp Dewpoint Dewpoint Depression Visibility Wind Speed Wind Dir Waves Ship Positions

Delaware

Owner: DELAWARE RIVER & BAY AUTHORITY, NORTH CAPE MAY, NJ. More information available from US FCC via Universal Licensing System and Coast Guard Vessel Documentation Center.

Last reported at 2017-Oct-22 22:30 UTC. Time now 2017-Oct-22 22:57 UTC.
Position N 38°57' W 075°00'.

; draft 2.2 m.

Type: Ship. MMSI: 366914210.

Date/timePositionNaut miles runAvg speedWind from/ knotsBaromVisibWave heightAir tempDewpointWater temp
2017-Oct-22 22:30N 38°57' W 075°00'2 4.9
2017-Oct-22 22:01N 38°58' W 074°58'3 6.4
2017-Oct-22 21:31N 38°56' W 075°01'510.7
2017-Oct-22 21:00N 38°51' W 075°04'5 9.6
2017-Oct-22 20:30N 38°47' W 075°07'0 0.3
2017-Oct-22 20:00N 38°47' W 075°07'4 7.8
2017-Oct-22 19:31N 38°51' W 075°06'612.4
2017-Oct-22 19:01N 38°56' W 075°01'4 7.4
2017-Oct-22 18:31N 38°58' W 074°58'0 0.0
2017-Oct-22 18:01N 38°58' W 074°58'3 5.8
2017-Oct-22 17:31N 38°56' W 075°00'611.1
2017-Oct-22 17:01N 38°52' W 075°05'510.3
2017-Oct-22 16:30N 38°47' W 075°07'0 0.0
2017-Oct-22 16:00N 38°47' W 075°07'4 7.3
2017-Oct-22 15:30N 38°50' W 075°05'611.8
2017-Oct-22 15:00N 38°55' W 075°01'4 8.0
2017-Oct-22 14:30N 38°58' W 074°58'1 1.7
2017-Oct-22 14:00N 38°58' W 074°59'612.3
2017-Oct-22 13:30N 38°53' W 075°03'611.5
2017-Oct-22 13:00N 38°48' W 075°07'1 1.8
2017-Oct-22 12:30N 38°47' W 075°07'4 9.0
2017-Oct-22 12:00N 38°51' W 075°06'611.5
2017-Oct-22 11:31N 38°56' W 075°01'4 7.1
2017-Oct-22 11:00N 38°58' W 074°58'0 0.0
2017-Oct-22 10:30N 38°58' W 074°58'0 0.0
2017-Oct-22 09:58N 38°58' W 074°58'0 0.0
2017-Oct-22 09:28N 38°58' W 074°58'0 0.0
2017-Oct-22 08:58N 38°58' W 074°58'0 0.0
2017-Oct-22 08:28N 38°58' W 074°58'0 0.0
2017-Oct-22 07:58N 38°58' W 074°58'0 0.0
2017-Oct-22 07:28N 38°58' W 074°58'0 0.0
2017-Oct-22 06:58N 38°58' W 074°58'0 0.0
2017-Oct-22 06:25N 38°58' W 074°58'0 0.0
2017-Oct-22 05:58N 38°58' W 074°58'0 0.0
2017-Oct-22 05:28N 38°58' W 074°58'0 0.0
2017-Oct-22 04:58N 38°58' W 074°58'0 0.0
2017-Oct-22 04:25N 38°58' W 074°58'0 0.0
2017-Oct-22 03:58N 38°58' W 074°58'0 0.0
2017-Oct-22 03:28N 38°58' W 074°58'0 0.0
2017-Oct-22 02:58N 38°58' W 074°58'0 0.0
2017-Oct-22 02:28N 38°58' W 074°58'0 0.0
2017-Oct-22 01:58N 38°58' W 074°58'0 0.0
2017-Oct-22 01:28N 38°58' W 074°58'0 0.7
2017-Oct-22 01:01N 38°58' W 074°58'612.4
2017-Oct-22 00:30N 38°53' W 075°04'612.4
2017-Oct-22 00:00N 38°48' W 075°07'1 1.9
2017-Oct-21 23:31N 38°47' W 075°07'5 9.9
2017-Oct-21 23:00N 38°52' W 075°06'611.4
2017-Oct-21 22:30N 38°56' W 075°01'3 6.2
2017-Oct-21 21:59N 38°58' W 074°58'1 2.0
2017-Oct-21 21:31N 38°58' W 074°59'611.3
2017-Oct-21 21:00N 38°53' W 075°03'611.0
2017-Oct-21 20:30N 38°48' W 075°07'1 2.9
2017-Oct-21 20:01N 38°47' W 075°07'3 6.2
2017-Oct-21 19:31N 38°50' W 075°07'612.5
2017-Oct-21 19:01N 38°55' W 075°02'4 9.0
2017-Oct-21 18:30N 38°58' W 074°58'0 0.0
2017-Oct-21 18:01N 38°58' W 074°58'2 3.2
2017-Oct-21 17:30N 38°57' W 074°59'611.3
2017-Oct-21 17:00N 38°53' W 075°04'611.6
2017-Oct-21 16:31N 38°48' W 075°07'1 1.3
2017-Oct-21 16:01N 38°47' W 075°07'4 7.3
2017-Oct-21 15:30N 38°51' W 075°06'611.9
2017-Oct-21 15:00N 38°55' W 075°02'4 3.6
2017-Oct-21 14:01N 38°58' W 074°58'611.9
2017-Oct-21 13:30N 38°53' W 075°03'611.6
2017-Oct-21 13:00N 38°48' W 075°07'1 2.5
2017-Oct-21 12:30N 38°47' W 075°07'4 8.5
2017-Oct-21 12:00N 38°51' W 075°06'611.3
2017-Oct-21 11:30N 38°56' W 075°02'4 8.0
2017-Oct-21 11:00N 38°58' W 074°58'0 0.0
2017-Oct-21 10:30N 38°58' W 074°58'0 0.0
2017-Oct-21 09:59N 38°58' W 074°58'0 0.0
2017-Oct-21 09:26N 38°58' W 074°58'0 0.0
2017-Oct-21 08:59N 38°58' W 074°58'0 0.0
2017-Oct-21 08:26N 38°58' W 074°58'0 0.0
2017-Oct-21 07:59N 38°58' W 074°58'0 0.0
2017-Oct-21 07:29N 38°58' W 074°58'0 0.0
2017-Oct-21 06:59N 38°58' W 074°58'0 0.0
2017-Oct-21 06:29N 38°58' W 074°58'0 0.0
2017-Oct-21 05:59N 38°58' W 074°58'0 0.0
2017-Oct-21 05:29N 38°58' W 074°58'0 0.0
2017-Oct-21 04:59N 38°58' W 074°58'0 0.0
2017-Oct-21 04:29N 38°58' W 074°58'0 0.0
2017-Oct-21 03:59N 38°58' W 074°58'0 0.0
2017-Oct-21 03:29N 38°58' W 074°58'0 0.0
2017-Oct-21 02:59N 38°58' W 074°58'0 0.0
2017-Oct-21 02:26N 38°58' W 074°58'0 0.0
2017-Oct-21 01:59N 38°58' W 074°58'0 0.0
2017-Oct-21 01:29N 38°58' W 074°58'0 0.4
2017-Oct-21 01:00N 38°58' W 074°58'612.2
2017-Oct-21 00:30N 38°54' W 075°04'612.6
2017-Oct-21 00:00N 38°48' W 075°07'1 2.3
2017-Oct-20 23:29N 38°47' W 075°07'6 9.3
2017-Oct-20 22:49N 38°53' W 075°04'511.5
2017-Oct-20 22:23N 38°57' W 075°00'2 6.2
2017-Oct-20 21:59N 38°58' W 074°58'2 4.1
2017-Oct-20 21:27N 38°57' W 074°60'511.4
2017-Oct-20 21:00N 38°52' W 075°03'7 3.0
2017-Oct-20 18:39N 38°58' W 074°58'0 0.1
2017-Oct-20 17:47N 38°58' W 074°58'0 0.1
2017-Oct-20 17:12N 38°58' W 074°58'0 0.0
2017-Oct-20 16:54N 38°58' W 074°58'0 0.0
2017-Oct-20 15:36N 38°58' W 074°58'0 0.0
2017-Oct-20 15:06N 38°58' W 074°58'0 0.0
2017-Oct-20 14:57N 38°58' W 074°58'0 0.0
2017-Oct-20 13:57N 38°58' W 074°58'0 0.0
2017-Oct-20 13:30N 38°58' W 074°58'0 0.0
2017-Oct-20 13:00N 38°58' W 074°58'0 0.0
2017-Oct-20 12:30N 38°58' W 074°58'0 0.0
2017-Oct-20 12:00N 38°58' W 074°58'0 0.0
2017-Oct-20 11:30N 38°58' W 074°58'0 0.0
2017-Oct-20 11:00N 38°58' W 074°58'0 0.0
2017-Oct-20 10:30N 38°58' W 074°58'0 0.0
2017-Oct-20 10:00N 38°58' W 074°58'0 0.0
2017-Oct-20 09:30N 38°58' W 074°58'0 0.0
2017-Oct-20 09:00N 38°58' W 074°58'0 0.0
2017-Oct-20 08:29N 38°58' W 074°58'0 0.0
2017-Oct-20 07:59N 38°58' W 074°58'0 0.0
2017-Oct-20 07:30N 38°58' W 074°58'0 0.0
2017-Oct-20 07:00N 38°58' W 074°58'0 0.0
2017-Oct-20 06:30N 38°58' W 074°58'0 0.0
2017-Oct-20 05:57N 38°58' W 074°58'0 0.0
2017-Oct-20 05:27N 38°58' W 074°58'0 0.0
2017-Oct-20 04:59N 38°58' W 074°58'0 0.0
2017-Oct-20 04:30N 38°58' W 074°58'0 0.0
2017-Oct-20 03:59N 38°58' W 074°58'0 0.0
2017-Oct-20 03:30N 38°58' W 074°58'0 0.0
2017-Oct-20 03:00N 38°58' W 074°58'0 0.0
2017-Oct-20 02:30N 38°58' W 074°58'0 0.0
2017-Oct-20 02:00N 38°58' W 074°58'0 0.0
2017-Oct-20 01:27N 38°58' W 074°58'0 0.0
2017-Oct-20 01:00N 38°58' W 074°58'0 0.0
2017-Oct-20 00:21N 38°58' W 074°58'0 0.0
2017-Oct-20 00:00N 38°58' W 074°58'0 0.0
2017-Oct-19 23:27N 38°58' W 074°58'0 0.0
2017-Oct-19 22:54N 38°58' W 074°58'0 0.0
2017-Oct-19 22:30N 38°58' W 074°58'0 0.0
2017-Oct-19 22:00N 38°58' W 074°58'0 0.0
2017-Oct-19 21:30N 38°58' W 074°58'0 0.0
2017-Oct-19 20:57N 38°58' W 074°58'0 0.0
2017-Oct-19 20:30N 38°58' W 074°58'0 0.0
2017-Oct-19 20:00N 38°58' W 074°58'0 0.0
2017-Oct-19 19:27N 38°58' W 074°58'0 0.0
2017-Oct-19 19:00N 38°58' W 074°58'0 0.0
2017-Oct-19 16:51N 38°58' W 074°58'0 0.0
2017-Oct-19 16:27N 38°58' W 074°58'0 0.0
2017-Oct-19 15:33N 38°58' W 074°58'0 0.2
2017-Oct-19 15:30N 38°58' W 074°58'0 0.0
2017-Oct-19 15:00N 38°58' W 074°58'0 0.0
2017-Oct-19 14:30N 38°58' W 074°58'0 0.0
2017-Oct-19 13:54N 38°58' W 074°58'0 0.0
2017-Oct-19 13:26N 38°58' W 074°58'0 0.0
2017-Oct-19 13:00N 38°58' W 074°58'0 0.0
2017-Oct-19 12:21N 38°58' W 074°58'0 0.0
2017-Oct-19 11:57N 38°58' W 074°58'0 0.1
2017-Oct-19 11:27N 38°58' W 074°58'0 0.0
2017-Oct-19 11:00N 38°58' W 074°58'0 0.0
2017-Oct-19 10:30N 38°58' W 074°58'0 0.0
2017-Oct-19 09:59N 38°58' W 074°58'0 0.0
2017-Oct-19 09:30N 38°58' W 074°58'0 0.0
2017-Oct-19 08:57N 38°58' W 074°58'0 0.0
2017-Oct-19 08:30N 38°58' W 074°58'0 0.0
2017-Oct-19 08:00N 38°58' W 074°58'0 0.0
2017-Oct-19 07:30N 38°58' W 074°58'0 0.0
2017-Oct-19 07:00N 38°58' W 074°58'0 0.0
2017-Oct-19 06:30N 38°58' W 074°58'0 0.0
2017-Oct-19 06:00N 38°58' W 074°58'0 0.0
2017-Oct-19 05:24N 38°58' W 074°58'0 0.0
2017-Oct-19 05:00N 38°58' W 074°58'0 0.0
2017-Oct-19 04:24N 38°58' W 074°58'0 0.0
2017-Oct-19 04:00N 38°58' W 074°58'0 0.0
2017-Oct-19 03:30N 38°58' W 074°58'0 0.0
2017-Oct-19 02:57N 38°58' W 074°58'0 0.0
2017-Oct-19 02:30N 38°58' W 074°58'0 0.0
2017-Oct-19 01:54N 38°58' W 074°58'0 0.0
2017-Oct-19 01:27N 38°58' W 074°58'0 0.2
2017-Oct-19 01:00N 38°58' W 074°58'611.6
2017-Oct-19 00:30N 38°54' W 075°03'712.5
2017-Oct-18 23:58N 38°48' W 075°07'1 2.1
2017-Oct-18 23:29N 38°47' W 075°07'4 8.9
2017-Oct-18 23:00N 38°51' W 075°06'511.0
2017-Oct-18 22:30N 38°56' W 075°02'4 8.2
2017-Oct-18 22:01N 38°58' W 074°58'0 0.4
2017-Oct-18 21:31N 38°58' W 074°58'612.1
2017-Oct-18 21:00N 38°54' W 075°03'612.0
2017-Oct-18 20:31N 38°48' W 075°07'1 2.6
2017-Oct-18 19:57N 38°47' W 075°07'4 8.8
2017-Oct-18 19:30N 38°51' W 075°06'712.5
2017-Oct-18 18:55N 38°57' W 075°00'2 2.0
2017-Oct-18 17:38N 38°58' W 074°58'1 7.6
2017-Oct-18 17:28N 38°57' W 074°59'9 4.3
2017-Oct-18 15:28N 38°51' W 075°06'612.2
2017-Oct-18 15:00N 38°55' W 075°02'4 3.7
2017-Oct-18 14:00N 38°58' W 074°59'510.9
2017-Oct-18 13:30N 38°54' W 075°03'611.9
2017-Oct-18 13:00N 38°49' W 075°07'2 3.3
2017-Oct-18 12:30N 38°47' W 075°07'4 8.2
2017-Oct-18 12:00N 38°51' W 075°06'510.9
2017-Oct-18 11:30N 38°55' W 075°02'4 8.5
2017-Oct-18 11:00N 38°58' W 074°58'0 0.0
2017-Oct-18 10:30N 38°58' W 074°58'0 0.0
2017-Oct-18 09:58N 38°58' W 074°58'0 0.0
2017-Oct-18 09:22N 38°58' W 074°58'0 0.0
2017-Oct-18 08:58N 38°58' W 074°58'0 0.0
2017-Oct-18 08:25N 38°58' W 074°58'0 0.0
2017-Oct-18 07:58N 38°58' W 074°58'0 0.0
2017-Oct-18 07:22N 38°58' W 074°58'0 0.0
2017-Oct-18 06:58N 38°58' W 074°58'0 0.0
2017-Oct-18 06:16N 38°58' W 074°58'0 0.0
2017-Oct-18 05:55N 38°58' W 074°58'0 0.0
2017-Oct-18 05:25N 38°58' W 074°58'0 0.0
2017-Oct-18 04:58N 38°58' W 074°58'0 0.0
2017-Oct-18 04:28N 38°58' W 074°58'0 0.0
2017-Oct-18 03:49N 38°58' W 074°58'0 0.0
2017-Oct-18 03:19N 38°58' W 074°58'0 0.0
2017-Oct-18 02:58N 38°58' W 074°58'0 0.0
2017-Oct-18 02:25N 38°58' W 074°58'0 0.0
2017-Oct-18 01:03N 38°58' W 074°58'2 9.5
2017-Oct-18 00:50N 38°57' W 074°60'512.0
2017-Oct-18 00:25N 38°53' W 075°04'512.4
2017-Oct-18 00:00N 38°48' W 075°07'12 1.9
2017-Oct-17 17:39N 38°58' W 074°58'510.0
2017-Oct-17 17:12N 38°55' W 075°02'210.9
2017-Oct-17 16:59N 38°53' W 075°04'610.7
2017-Oct-17 16:25N 38°47' W 075°07'0 0.8
2017-Oct-17 15:55N 38°47' W 075°07'4 8.7
2017-Oct-17 15:30N 38°51' W 075°06'1011.5
2017-Oct-17 14:37N 38°58' W 074°58'0 0.2
2017-Oct-17 14:11N 38°58' W 074°58'2 9.2
2017-Oct-17 13:56N 38°57' W 074°60'610.8
2017-Oct-17 13:25N 38°52' W 075°05'511.0
2017-Oct-17 12:57N 38°48' W 075°07'1 1.2
2017-Oct-17 12:24N 38°47' W 075°07'4 8.8
2017-Oct-17 12:00N 38°50' W 075°06'811.8
2017-Oct-17 11:20N 38°57' W 075°00'2 7.1
2017-Oct-17 11:00N 38°58' W 074°58'0 0.0
2017-Oct-17 10:29N 38°58' W 074°58'0 0.0
2017-Oct-17 09:58N 38°58' W 074°58'0 0.0
2017-Oct-17 09:10N 38°58' W 074°58'0 0.0
2017-Oct-17 08:52N 38°58' W 074°58'0 0.0
2017-Oct-17 07:43N 38°58' W 074°58'0 0.0
2017-Oct-17 06:28N 38°58' W 074°58'0 0.0
2017-Oct-17 05:49N 38°58' W 074°58'0 0.0
2017-Oct-17 05:25N 38°58' W 074°58'0 0.0
2017-Oct-17 04:49N 38°58' W 074°58'0 0.0
2017-Oct-17 04:28N 38°58' W 074°58'0 0.0
2017-Oct-17 03:58N 38°58' W 074°58'0 0.0
2017-Oct-17 03:16N 38°58' W 074°58'0 0.0
2017-Oct-17 02:58N 38°58' W 074°58'0 0.0
2017-Oct-17 02:25N 38°58' W 074°58'0 0.0
2017-Oct-17 01:58N 38°58' W 074°58'0 0.0
2017-Oct-17 01:25N 38°58' W 074°58'0 0.0
2017-Oct-17 00:13N 38°58' W 074°58'0 0.0
2017-Oct-16 23:58N 38°58' W 074°58'0 0.0
2017-Oct-16 23:13N 38°58' W 074°58'0 0.0
2017-Oct-16 14:31N 38°58' W 074°58'0 0.0
2017-Oct-16 13:58N 38°58' W 074°58'0 0.0
2017-Oct-16 13:22N 38°58' W 074°58'0 0.0
2017-Oct-16 12:58N 38°58' W 074°58'0 0.0
2017-Oct-16 12:25N 38°58' W 074°58'0 0.0
2017-Oct-16 11:34N 38°58' W 074°58'0 0.0
2017-Oct-16 11:22N 38°58' W 074°58'0 0.0
2017-Oct-16 10:58N 38°58' W 074°58'0 0.0
2017-Oct-16 10:28N 38°58' W 074°58'0 0.0
2017-Oct-16 09:58N 38°58' W 074°58'0 0.0
2017-Oct-16 09:28N 38°58' W 074°58'0 0.0
2017-Oct-16 08:58N 38°58' W 074°58'0 0.0
2017-Oct-16 08:25N 38°58' W 074°58'0 0.0
2017-Oct-16 07:58N 38°58' W 074°58'0 0.0
2017-Oct-16 07:13N 38°58' W 074°58'0 0.0
2017-Oct-16 06:58N 38°58' W 074°58'0 0.0
2017-Oct-16 06:28N 38°58' W 074°58'0 0.0
2017-Oct-16 05:58N 38°58' W 074°58'0 0.0
2017-Oct-16 04:43N 38°58' W 074°58'0 0.0
2017-Oct-16 04:28N 38°58' W 074°58'0 0.0
2017-Oct-16 03:55N 38°58' W 074°58'0 0.0
2017-Oct-16 03:16N 38°58' W 074°58'0 0.0
2017-Oct-16 02:31N 38°58' W 074°58'0 0.0
2017-Oct-16 02:13N 38°58' W 074°58'0 0.0
2017-Oct-16 01:58N 38°58' W 074°58'0 0.0
2017-Oct-16 01:19N 38°58' W 074°58'0 0.0
2017-Oct-16 00:58N 38°58' W 074°58'0 0.0
2017-Oct-15 23:55N 38°58' W 074°58'0 0.0
2017-Oct-15 23:13N 38°58' W 074°58'0 0.0
2017-Oct-15 22:52N 38°58' W 074°58'0 0.0
2017-Oct-15 21:19N 38°58' W 074°58'0 0.0
2017-Oct-15 20:31N 38°58' W 074°58'0 0.0
2017-Oct-15 19:41N 38°58' W 074°58'0 0.5
2017-Oct-15 19:30N 38°58' W 074°58'3 6.4
2017-Oct-15 18:58N 38°56' W 075°01'612.7
2017-Oct-15 18:30N 38°51' W 075°06'4 7.4
2017-Oct-15 17:55N 38°47' W 075°07'0 0.1
2017-Oct-15 17:31N 38°47' W 075°07'510.0
2017-Oct-15 17:00N 38°52' W 075°06'711.6
2017-Oct-15 16:25N 38°57' W 075°00'2 5.2
2017-Oct-15 15:59N 38°58' W 074°58'2 4.0
2017-Oct-15 15:30N 38°57' W 074°60'611.2
2017-Oct-15 15:00N 38°52' W 075°04'6 6.1
2017-Oct-15 14:00N 38°47' W 075°07'5 8.7
2017-Oct-15 13:29N 38°51' W 075°06'611.8
2017-Oct-15 13:01N 38°56' W 075°01'4 7.4
2017-Oct-15 12:30N 38°58' W 074°58'0 0.0
2017-Oct-15 12:00N 38°58' W 074°58'0 0.0
2017-Oct-15 11:07N 38°58' W 074°58'0 0.0
2017-Oct-15 10:58N 38°58' W 074°58'0 0.0
2017-Oct-15 10:28N 38°58' W 074°58'0 0.0
2017-Oct-15 09:55N 38°58' W 074°58'0 0.0
2017-Oct-15 08:43N 38°58' W 074°58'0 0.0
2017-Oct-15 08:22N 38°58' W 074°58'0 0.0
2017-Oct-15 07:37N 38°58' W 074°58'0 0.0
2017-Oct-15 07:19N 38°58' W 074°58'0 0.0
2017-Oct-15 06:58N 38°58' W 074°58'0 0.0
2017-Oct-15 06:22N 38°58' W 074°58'0 0.0
2017-Oct-15 05:55N 38°58' W 074°58'0 0.0
2017-Oct-15 04:01N 38°58' W 074°58'0 0.0
2017-Oct-15 03:55N 38°58' W 074°58'0 0.0
2017-Oct-15 03:22N 38°58' W 074°58'0 0.0
2017-Oct-15 02:58N 38°58' W 074°58'0 0.0
2017-Oct-15 02:28N 38°58' W 074°58'0 0.0
2017-Oct-15 01:58N 38°58' W 074°58'0 0.0
2017-Oct-15 01:25N 38°58' W 074°58'1 2.7
2017-Oct-15 01:00N 38°57' W 074°59'611.2
2017-Oct-15 00:30N 38°53' W 075°04'611.4
2017-Oct-15 00:00N 38°48' W 075°07'1 2.6
2017-Oct-14 23:30N 38°47' W 075°07'4 7.2
2017-Oct-14 22:58N 38°51' W 075°06'612.3
2017-Oct-14 22:30N 38°55' W 075°02'4 8.9
2017-Oct-14 22:00N 38°58' W 074°58'1 1.3
2017-Oct-14 21:30N 38°58' W 074°58'612.0
2017-Oct-14 21:00N 38°53' W 075°03'611.9
2017-Oct-14 20:30N 38°48' W 075°07'1 2.0
2017-Oct-14 20:00N 38°47' W 075°07'610.6
2017-Oct-14 19:27N 38°53' W 075°05'611.6
2017-Oct-14 18:58N 38°57' W 075°00'3 5.2
2017-Oct-14 18:29N 38°58' W 074°58'0 0.0
2017-Oct-14 18:00N 38°58' W 074°58'0 0.7
2017-Oct-14 17:30N 38°58' W 074°58'711.9
2017-Oct-14 16:56N 38°53' W 075°03'511.2
2017-Oct-14 16:29N 38°49' W 075°07'2 3.4
2017-Oct-14 16:00N 38°47' W 075°07'4 7.2
2017-Oct-14 15:27N 38°51' W 075°06'712.5
2017-Oct-14 14:52N 38°57' W 075°00'3 6.7
2017-Oct-14 14:29N 38°58' W 074°58'1 2.1
2017-Oct-14 14:00N 38°58' W 074°59'510.8
2017-Oct-14 13:30N 38°53' W 075°03'611.2
2017-Oct-14 13:00N 38°49' W 075°07'2 3.4
2017-Oct-14 12:30N 38°47' W 075°07'4 7.1
2017-Oct-14 11:54N 38°51' W 075°06'512.4
2017-Oct-14 11:30N 38°55' W 075°02'5 8.5
2017-Oct-14 10:57N 38°58' W 074°58'0 0.0
2017-Oct-14 10:30N 38°58' W 074°58'0 0.0
2017-Oct-14 09:08N 38°58' W 074°58'0 0.0
2017-Oct-14 08:53N 38°58' W 074°58'0 0.0
2017-Oct-14 08:29N 38°58' W 074°58'0 0.0
2017-Oct-14 07:47N 38°58' W 074°58'0 0.0
2017-Oct-14 07:26N 38°58' W 074°58'0 0.0
2017-Oct-14 06:56N 38°58' W 074°58'0 0.0
2017-Oct-14 06:20N 38°58' W 074°58'0 0.0
2017-Oct-14 05:56N 38°58' W 074°58'0 0.0
2017-Oct-14 05:17N 38°58' W 074°58'0 0.0
2017-Oct-14 04:53N 38°58' W 074°58'0 0.0
2017-Oct-14 01:09N 38°58' W 074°58'2 9.3
2017-Oct-14 00:59N 38°57' W 074°59'510.9
2017-Oct-14 00:30N 38°53' W 075°04'2 1.4
2017-Oct-13 22:54N 38°52' W 075°06'612.4
2017-Oct-13 22:24N 38°56' W 075°01'3 4.1
2017-Oct-13 21:41N 38°58' W 074°58'2 9.7
2017-Oct-13 21:28N 38°57' W 074°60'2 0.6
2017-Oct-13 18:05N 38°58' W 074°58'0 0.2
2017-Oct-13 17:43N 38°58' W 074°58'0 0.0
2017-Oct-13 14:10N 38°58' W 074°58'3 9.4
2017-Oct-13 13:52N 38°56' W 075°00'2 0.9
2017-Oct-13 11:10N 38°58' W 074°58'1 2.8
2017-Oct-13 10:57N 38°58' W 074°58'0 0.0
2017-Oct-13 10:29N 38°58' W 074°58'0 0.0
2017-Oct-13 08:06N 38°58' W 074°58'0 0.0
2017-Oct-13 07:51N 38°58' W 074°58'0 0.0
2017-Oct-13 07:30N 38°58' W 074°58'0 0.0
2017-Oct-13 06:54N 38°58' W 074°58'0 0.0
2017-Oct-13 06:09N 38°58' W 074°58'0 0.0
2017-Oct-13 05:51N 38°58' W 074°58'0 0.0
2017-Oct-13 05:24N 38°58' W 074°58'0 0.0
2017-Oct-13 04:57N 38°58' W 074°58'0 0.0
2017-Oct-13 03:57N 38°58' W 074°58'0 0.0
2017-Oct-13 02:33N 38°58' W 074°58'0 0.0
2017-Oct-13 01:09N 38°58' W 074°58'0 0.0
2017-Oct-13 01:00N 38°58' W 074°58'  

Dump ship's entire track history